Latest Weather Observations for Halls Creek

IDW60801

Issued at 12:32 pm WST Thursday 11 February 2016 (issued every 30 minutes, with the page automatically refreshed every 10 minutes)

About weather observations | Map of weather stations | Latest weather observations for WA | Other Formats
Station Details ID: 002012 Name: HALLS CREEK AIRPORT Lat: -18.23 Lon: 127.66 Height: 422.0 m
Data from the previous 72 hours. | See also: Recent months at Halls Creek
Date/Time
WST
Temp
°C
App
Temp
°C
Dew
Point
Rel
Hum
%
Delta-T
°C
Wind Press
QNH
hPa
Press
MSL
hPa
Rain
since 9 am
mm
Dir
 
Spd
km/h
Gust
km/h
Spd
kts
Gust
kts
11/12:00pm 38.5 36.0 8.0 15 17.7 E 11 24 6 13 1009.1 1005.8 0.0
11/11:30am 37.6 32.8 5.8 14 17.8 E 20 32 11 17 1009.6 - 0.0
11/11:00am 38.1 35.3 6.9 15 17.8 E 11 22 6 12 1009.9 - 0.0
11/10:30am 37.6 34.8 8.4 17 17.0 E 13 24 7 13 1010.3 - 0.0
11/10:00am 36.7 34.5 9.5 19 16.0 E 11 22 6 12 1010.7 - 0.0
11/09:30am 35.7 35.0 11.5 23 14.6 ENE 6 11 3 6 1010.9 - 0.0
11/09:00am 34.8 33.5 10.0 22 14.6 ESE 7 15 4 8 1011.0 1007.6 0.0
11/08:30am 33.4 32.0 10.8 25 13.4 E 9 19 5 10 1011.2 - 0.0
11/08:00am 33.1 31.1 10.3 24 13.4 ESE 11 20 6 11 1011.2 - 0.0
11/07:30am 31.3 30.5 11.1 29 11.9 E 6 15 3 8 1010.9 - 0.0
11/07:00am 29.9 29.2 12.1 33 10.6 ESE 7 13 4 7 1010.8 - 0.0
11/06:30am 27.9 27.7 13.1 40 8.9 ESE 6 9 3 5 1010.6 - 0.0
11/06:00am 24.8 26.2 15.4 56 5.8 N 2 4 1 2 1010.1 1006.7 0.0
11/05:30am 24.0 24.7 14.6 55 5.7 WSW 4 6 2 3 1009.8 - 0.0
11/05:00am 24.8 25.7 14.0 51 6.5 SE 2 4 1 2 1009.4 - 0.0
11/04:30am 24.6 25.9 15.1 55 5.8 SE 2 6 1 3 1009.3 - 0.0
11/04:00am 25.0 26.3 15.2 54 6.0 ENE 2 6 1 3 1009.1 - 0.0
11/03:30am 26.0 27.4 15.5 52 6.5 S 2 4 1 2 1008.9 - 0.0
11/03:00am 27.8 27.7 12.0 37 9.3 WSW 4 6 2 3 1008.6 1005.2 0.0
11/02:30am 27.7 27.6 13.2 40 8.7 WSW 6 7 3 4 1008.6 - 0.0
11/02:00am 27.6 27.8 12.9 40 8.8 WSW 4 9 2 5 1008.6 - 0.0
11/01:30am 27.3 28.5 15.0 47 7.6 WSW 2 4 1 2 1008.6 - 0.0
11/01:00am 28.7 28.8 12.7 37 9.6 N 4 6 2 3 1008.5 - 0.0
11/12:30am 28.9 29.9 14.2 40 9.0 SW 2 6 1 3 1009.0 - 0.0
11/12:00am 29.6 29.2 11.2 32 10.8 W 4 6 2 3 1009.2 1005.9 0.0
 
Date/Time
WST
Temp
°C
App
Temp
°C
Dew
Point
Rel
Hum
%
Delta-T
°C
Wind Press
QNH
hPa
Press
MSL
hPa
Rain
since 9 am
mm
Dir
 
Spd
km/h
Gust
km/h
Spd
kts
Gust
kts
10/11:30pm 28.3 28.8 12.7 38 9.3 W 2 4 1 2 1009.6 - 0.0
10/11:00pm 28.4 27.9 12.2 36 9.6 SW 6 7 3 4 1009.9 - 0.0
10/10:30pm 29.0 28.2 11.0 32 10.5 NW 6 7 3 4 1010.2 - 0.0
10/10:00pm 29.2 29.2 11.1 32 10.6 NW 2 4 1 2 1010.5 - 0.0
10/09:30pm 29.8 30.3 11.5 32 10.8 CALM 0 2 0 1 1010.4 - 0.0
10/09:00pm 29.8 30.3 12.7 35 10.3 SSE 2 6 1 3 1010.2 1006.8 0.0
10/08:30pm 30.3 30.5 12.9 34 10.5 SSE 4 6 2 3 1010.1 - 0.0
10/08:00pm 31.4 31.3 12.0 30 11.6 ESE 4 6 2 3 1009.9 - 0.0
10/07:30pm 31.7 32.4 13.4 32 11.2 SE 2 4 1 2 1009.5 - 0.0
10/07:00pm 32.6 32.7 12.7 29 12.1 ESE 4 6 2 3 1009.0 - 0.0
10/06:30pm 34.0 32.9 10.0 23 14.1 ESE 6 11 3 6 1008.6 - 0.0
10/06:00pm 35.3 33.4 9.0 20 15.3 ESE 9 19 5 10 1008.1 1004.7 0.0
10/05:30pm 36.2 33.2 7.8 17 16.2 SE 13 24 7 13 1007.7 - 0.0
10/05:00pm 36.9 33.9 7.6 16 16.8 ESE 13 26 7 14 1007.4 - 0.0
10/04:30pm 37.1 34.2 8.0 17 16.8 ESE 13 22 7 12 1007.2 - 0.0
10/04:00pm 37.5 34.8 8.8 17 16.8 SE 13 28 7 15 1007.2 - 0.0
10/03:30pm 38.2 35.4 8.7 16 17.3 ESE 13 30 7 16 1007.3 - 0.0
10/03:00pm 38.4 35.8 9.4 17 17.2 SE 13 30 7 16 1007.6 1004.2 0.0
10/02:30pm 37.0 34.8 10.7 20 15.8 ESE 13 28 7 15 1007.9 - 0.0
10/02:00pm 37.4 34.8 9.2 18 16.6 SE 13 24 7 13 1008.0 - 0.0
10/01:30pm 38.6 36.4 9.5 17 17.2 ESE 11 22 6 12 1008.1 - 0.0
10/01:00pm 37.8 35.4 8.5 17 17.1 ESE 11 22 6 12 1008.5 - 0.0
10/12:30pm 37.8 36.0 10.8 19 16.3 SSE 11 30 6 16 1009.0 - 0.0
10/12:00pm 38.4 36.6 9.6 17 17.1 SE 9 20 5 11 1009.2 1005.9 0.0
10/11:30am 38.0 35.3 9.1 17 17.0 SE 13 26 7 14 1009.6 - 0.0
10/11:00am 38.6 37.3 11.1 19 16.7 ESE 9 20 5 11 1010.1 - 0.0
10/10:30am 37.6 35.3 10.4 19 16.3 ESE 13 22 7 12 1010.3 - 0.0
10/10:00am 36.3 33.7 9.4 19 15.8 ESE 13 22 7 12 1010.7 - 0.0
10/09:30am 36.1 33.3 10.1 20 15.4 ESE 15 28 8 15 1011.1 - 0.0
10/09:00am 36.2 33.9 10.6 21 15.3 ESE 13 24 7 13 1011.2 1007.9 0.0
10/08:30am 35.4 33.2 10.8 22 14.7 ESE 13 24 7 13 1011.3 - 0.0
10/08:00am 34.3 33.7 12.2 26 13.4 ESE 7 17 4 9 1011.3 - 0.0
10/07:30am 34.8 33.9 11.3 24 14.1 SE 7 15 4 8 1011.1 - 0.0
10/07:00am 31.2 32.3 15.5 38 9.9 SE 4 6 2 3 1010.9 - 0.0
10/06:30am 28.0 29.7 16.3 49 7.4 SSE 2 4 1 2 1010.7 - 0.0
10/06:00am 25.8 27.6 17.3 59 5.4 E 4 7 2 4 1010.5 1007.1 0.0
10/05:30am 25.2 27.1 15.7 55 5.9 CALM 0 2 0 1 1010.1 - 0.0
10/05:00am 26.1 27.5 15.4 51 6.6 SW 2 6 1 3 1009.6 - 0.0
10/04:30am 25.5 26.6 15.6 54 6.1 NNW 4 6 2 3 1009.5 - 0.0
10/04:00am 26.2 27.9 16.3 54 6.2 N 2 6 1 3 1009.4 - 0.0
10/03:30am 27.7 28.2 13.9 42 8.4 SW 4 6 2 3 1009.3 - 0.0
10/03:00am 27.4 28.2 14.7 45 7.8 WSW 4 7 2 4 1009.3 1006.0 0.0
10/02:30am 27.0 27.4 14.8 47 7.5 WSW 6 9 3 5 1009.4 - 0.0
10/02:00am 26.4 27.0 15.4 50 6.8 SSW 6 7 3 4 1009.4 - 0.0
10/01:30am 27.2 28.2 14.4 45 7.8 WNW 2 4 1 2 1009.3 - 0.0
10/01:00am 26.9 28.3 15.3 49 7.2 W 2 4 1 2 1009.4 - 0.0
10/12:30am 28.4 27.8 11.8 35 9.8 WSW 6 7 3 4 1009.7 - 0.0
10/12:00am 28.4 28.6 12.0 36 9.7 WSW 2 4 1 2 1010.2 1006.8 0.0
 
Date/Time
WST
Temp
°C
App
Temp
°C
Dew
Point
Rel
Hum
%
Delta-T
°C
Wind Press
QNH
hPa
Press
MSL
hPa
Rain
since 9 am
mm
Dir
 
Spd
km/h
Gust
km/h
Spd
kts
Gust
kts
09/11:30pm 28.9 29.9 14.2 40 9.0 W 2 2 1 1 1010.5 - 0.0
09/11:00pm 29.2 29.4 12.0 34 10.2 W 2 4 1 2 1010.7 - 0.0
09/10:30pm 29.1 29.9 13.6 38 9.4 WSW 2 2 1 1 1010.9 - 0.0
09/10:00pm 29.4 30.2 13.8 38 9.5 SSW 2 2 1 1 1011.0 - 0.0
09/09:30pm 29.9 30.5 13.2 36 10.1 S 2 4 1 2 1011.1 - 0.0
09/09:00pm 30.2 30.8 13.2 35 10.3 S 2 4 1 2 1010.9 1007.5 0.0
09/08:30pm 30.8 31.3 12.7 33 10.9 SSE 2 4 1 2 1010.7 - 0.0
09/08:00pm 31.2 31.8 13.1 33 11.0 SE 2 4 1 2 1010.5 - 0.0
09/07:30pm 32.1 31.8 11.4 28 12.3 E 4 9 2 5 1010.2 - 0.0
09/07:00pm 32.4 31.6 11.2 27 12.6 ESE 6 9 3 5 1009.9 - 0.0
09/06:30pm 33.4 32.5 10.5 24 13.5 ESE 6 11 3 6 1009.6 - 0.0
09/06:00pm 34.5 32.7 9.5 21 14.6 ESE 9 19 5 10 1009.3 1006.0 0.0
09/05:30pm 35.7 33.4 9.1 19 15.5 SE 11 19 6 10 1009.0 - 0.0
09/05:00pm 36.5 33.7 8.6 18 16.2 SE 13 26 7 14 1008.9 - 0.0
09/04:30pm 36.4 33.9 9.6 19 15.8 SE 13 26 7 14 1008.8 - 0.0
09/04:00pm 37.5 34.4 10.2 19 16.3 SE 17 30 9 16 1008.8 - 0.0
09/03:30pm 37.6 35.2 10.1 19 16.4 ESE 13 37 7 20 1008.9 - 0.0
09/03:00pm 37.8 35.1 9.1 17 16.9 SE 13 26 7 14 1009.0 1005.7 0.0
09/02:30pm 36.4 33.0 9.3 19 15.9 ESE 17 32 9 17 1009.3 - 0.0
09/02:00pm 37.9 35.3 9.2 17 16.9 E 13 26 7 14 1009.3 - 0.0
09/01:30pm 36.5 33.7 8.6 18 16.2 ESE 13 28 7 15 1009.6 - 0.0
09/01:00pm 39.1 36.4 8.9 16 17.8 ESE 13 26 7 14 1010.1 - 0.0
09/12:30pm 37.7 35.9 10.8 19 16.2 E 11 22 6 12 1010.4 - 0.0
09/12:00pm 36.7 34.3 10.1 20 15.8 SE 13 26 7 14 1010.7 1007.3 0.0
09/11:30am 37.5 33.5 8.1 16 17.0 SE 19 43 10 23 1011.1 - 0.0
09/11:00am 37.2 34.2 10.7 20 15.9 SE 17 26 9 14 1011.5 - 0.0
09/10:30am 36.8 35.3 13.1 24 14.7 ESE 13 28 7 15 1011.9 - 0.0
09/10:00am 35.9 34.2 12.6 24 14.3 E 13 26 7 14 1012.3 - 0.0
09/09:30am 35.5 34.5 13.4 26 13.7 ESE 11 26 6 14 1012.7 - 0.0
09/09:00am 34.6 33.7 13.6 28 13.0 ESE 11 19 6 10 1012.9 1009.5 0.0
09/08:30am 34.1 34.0 14.9 31 12.1 ESE 9 19 5 10 1013.0 - 0.0
09/08:00am 33.0 33.0 15.3 34 11.2 ESE 9 17 5 9 1012.9 - 0.0
09/07:30am 32.3 33.3 16.4 38 10.2 ESE 6 9 3 5 1012.6 - 0.0
09/07:00am 30.6 32.4 17.4 45 8.5 S 4 7 2 4 1012.3 - 0.0
09/06:30am 28.5 30.9 18.0 53 6.8 WSW 2 4 1 2 1012.0 - 0.0
09/06:00am 26.5 29.4 18.1 60 5.4 CALM 0 2 0 1 1011.8 1008.5 0.0
09/05:30am 25.1 28.3 18.9 68 4.0 CALM 0 0 0 0 1011.4 - 0.0
09/05:00am 25.1 28.2 19.4 70 3.7 SE 2 2 1 1 1011.0 - 0.0
09/04:30am 25.7 28.5 18.9 66 4.4 E 2 4 1 2 1010.7 - 0.0
09/04:00am 26.7 29.7 18.5 60 5.3 CALM 0 4 0 2 1010.5 - 0.0
09/03:30am 27.2 29.1 17.7 56 6.1 N 4 4 2 2 1010.6 - 0.0
09/03:00am 28.7 29.9 16.0 46 8.0 NE 4 7 2 4 1010.4 1007.0 0.0
09/02:30am 28.0 29.9 16.8 50 7.1 WSW 2 4 1 2 1010.3 - 0.0
09/02:00am 28.6 30.5 16.8 48 7.5 SW 2 4 1 2 1010.3 - 0.0
09/01:30am 28.9 31.2 17.6 50 7.3 W 2 4 1 2 1010.4 - 0.0
09/01:00am 29.0 31.8 17.9 51 7.2 CALM 0 2 0 1 1010.5 - 0.0
09/12:30am 29.2 30.9 16.2 45 8.2 WSW 2 4 1 2 1010.7 - 0.0
09/12:00am 29.3 31.7 17.1 47 7.8 CALM 0 0 0 0 1010.9 1007.5 0.0
 
Date/Time
WST
Temp
°C
App
Temp
°C
Dew
Point
Rel
Hum
%
Delta-T
°C
Wind Press
QNH
hPa
Press
MSL
hPa
Rain
since 9 am
mm
Dir
 
Spd
km/h
Gust
km/h
Spd
kts
Gust
kts
08/11:30pm 29.5 31.6 17.2 47 7.9 SSE 2 2 1 1 1011.2 - 0.0
08/11:00pm 30.0 32.4 18.0 48 7.8 S 2 2 1 1 1011.5 - 0.0
08/10:30pm 29.9 32.0 17.3 46 8.1 SSE 2 4 1 2 1011.8 - 0.0
08/10:00pm 29.8 31.8 17.9 48 7.7 SSE 4 6 2 3 1011.9 - 0.0
08/09:30pm 30.1 31.8 16.2 43 8.8 S 2 4 1 2 1011.9 - 0.0
08/09:00pm 30.7 31.8 15.6 40 9.5 ESE 4 6 2 3 1011.6 1008.3 0.0
08/08:30pm 30.9 32.3 16.5 42 9.2 ESE 4 6 2 3 1011.3 - 0.0
08/08:00pm 31.4 31.9 14.9 36 10.3 ESE 6 7 3 4 1011.0 - 0.0
08/07:30pm 32.2 32.2 14.1 33 11.2 ESE 7 11 4 6 1010.7 - 0.0
08/07:00pm 32.5 32.6 13.9 32 11.5 ESE 6 11 3 6 1010.5 - 0.0
08/06:30pm 33.2 32.9 13.4 30 12.2 ESE 7 17 4 9 1010.3 - 0.0
08/06:00pm 34.1 32.9 12.9 27 13.0 ESE 11 22 6 12 1009.7 1006.4 0.0
08/05:30pm 34.9 33.6 12.5 25 13.7 ESE 11 22 6 12 1009.4 - 0.0
08/05:00pm 35.6 34.6 12.4 24 14.2 ESE 9 19 5 10 1009.1 - 0.0
08/04:30pm 35.7 34.3 12.3 24 14.3 E 11 24 6 13 1009.0 - 0.0
08/04:00pm 36.9 34.8 11.3 21 15.5 E 13 28 7 15 1008.9 - 0.0
08/03:30pm 37.5 36.1 12.3 22 15.5 E 11 20 6 11 1008.9 - 0.0
08/03:00pm 37.4 35.5 11.9 21 15.6 E 13 30 7 16 1008.9 1005.5 0.0
08/02:30pm 37.4 36.3 11.9 21 15.6 ENE 9 22 5 12 1008.9 - 0.0
08/02:00pm 37.5 35.8 11.3 20 15.9 ENE 11 33 6 18 1009.2 - 0.0
08/01:30pm 36.9 34.9 11.5 21 15.4 E 13 32 7 17 1009.4 - 0.0
08/01:00pm 37.6 35.4 10.9 20 16.1 E 13 28 7 15 1009.6 - 0.0

Other Formats:

Comma delimited format used in spreadsheet applications
http://www.bom.gov.au/fwo/IDW60801/IDW60801.94212.axf

JavaScript Object Notation format (JSON) in row-major order
http://www.bom.gov.au/fwo/IDW60801/IDW60801.94212.json